Time,TemperatureF,DewpointF,PressureIn,WindDirection,WindDirectionDegrees,WindSpeedMPH,WindSpeedGustMPH,Humidity,HourlyPrecipIn,Conditions,Clouds,dailyrainin,SoftwareType,DateUTC
2013-06-08 07:38:00,68.2,62.0,28.79,North,-999,-999.0,-999.0,80,0.00,,,0.00,WSDL version 420,2013-06-08 11:38:00,
2013-06-08 07:42:00,68.3,61.9,28.79,North,-999,-999.0,-999.0,80,0.00,,,0.00,WSDL version 420,2013-06-08 11:42:00,
2013-06-08 07:44:00,68.4,62.0,28.79,North,360,0.0,0.0,80,0.00,,,0.00,WSDL version 420,2013-06-08 11:44:00,
2013-06-08 07:48:00,68.4,62.0,28.79,North,-999,-999.0,-999.0,80,0.00,,,0.00,WSDL version 420,2013-06-08 11:48:00,
2013-06-08 07:50:00,68.4,62.0,28.79,North,360,0.0,0.0,80,0.00,,,0.00,WSDL version 420,2013-06-08 11:50:00,
2013-06-08 07:52:00,68.5,62.1,28.79,North,360,0.0,0.0,80,0.00,,,0.00,WSDL version 420,2013-06-08 11:52:00,
2013-06-08 07:54:00,68.5,62.1,28.79,North,360,0.0,0.0,80,0.00,,,0.00,WSDL version 420,2013-06-08 11:54:00,
2013-06-08 07:58:00,68.6,62.5,28.79,North,360,0.0,0.0,81,0.00,,,0.00,WSDL version 420,2013-06-08 11:58:00,
2013-06-08 08:00:00,68.6,62.6,28.79,North,360,0.0,0.0,81,0.00,,,0.00,WSDL version 420,2013-06-08 12:00:00,
2013-06-08 08:02:00,68.7,62.7,28.79,North,360,0.0,0.0,81,0.00,,,0.00,WSDL version 420,2013-06-08 12:02:00,
2013-06-08 08:08:00,68.9,62.9,28.82,SSE,158,0.0,0.0,81,0.00,,,0.00,WSDL version 420,2013-06-08 12:08:00,
2013-06-08 08:10:00,68.9,62.9,28.82,SSE,158,0.0,0.0,81,0.00,,,0.00,WSDL version 420,2013-06-08 12:10:00,
2013-06-08 08:18:00,69.1,63.1,28.82,SSE,158,0.0,0.0,81,0.00,,,0.00,WSDL version 420,2013-06-08 12:18:00,
2013-06-08 08:20:00,69.2,63.2,28.79,SE,135,0.0,0.0,81,0.00,,,0.00,WSDL version 420,2013-06-08 12:20:00,
2013-06-08 08:22:00,69.3,63.2,28.79,SE,135,0.0,0.0,81,0.00,,,0.00,WSDL version 420,2013-06-08 12:22:00,
2013-06-08 08:24:00,69.3,63.2,28.79,SE,135,0.0,0.0,80,0.00,,,0.00,WSDL version 420,2013-06-08 12:24:00,
2013-06-08 08:26:00,69.4,63.1,28.79,North,-999,-999.0,-999.0,80,0.00,,,0.00,WSDL version 420,2013-06-08 12:26:00,
2013-06-08 08:28:00,69.5,63.1,28.79,SE,135,0.0,0.0,80,0.00,,,0.00,WSDL version 420,2013-06-08 12:28:00,
2013-06-08 08:32:00,69.7,63.2,28.79,SSE,150,0.0,0.0,80,0.00,,,0.00,WSDL version 420,2013-06-08 12:32:00,
2013-06-08 08:34:00,69.8,63.3,28.79,SSE,158,0.0,0.0,80,0.00,,,0.00,WSDL version 420,2013-06-08 12:34:00,
2013-06-08 08:38:00,69.9,63.4,28.79,SSE,150,0.0,0.0,79,0.00,,,0.00,WSDL version 420,2013-06-08 12:38:00,
2013-06-08 08:40:00,70.0,63.4,28.79,SE,135,0.0,0.0,79,0.00,,,0.00,WSDL version 420,2013-06-08 12:40:00,
2013-06-08 08:42:00,70.1,63.3,28.79,North,0,0.0,0.0,79,0.00,,,0.00,WSDL version 420,2013-06-08 12:42:00,
2013-06-08 08:46:00,70.3,63.5,28.79,SE,135,0.0,0.9,79,0.00,,,0.00,WSDL version 420,2013-06-08 12:46:00,
2013-06-08 08:48:00,70.4,63.6,28.79,ESE,105,1.0,2.2,79,0.00,,,0.00,WSDL version 420,2013-06-08 12:48:00,
2013-06-08 08:52:00,70.6,63.6,28.82,NE,45,0.0,2.2,78,0.00,,,0.00,WSDL version 420,2013-06-08 12:52:00,
2013-06-08 08:54:00,70.7,63.5,28.82,North,-999,-999.0,-999.0,78,0.00,,,0.00,WSDL version 420,2013-06-08 12:54:00,
2013-06-08 08:58:00,70.9,63.7,28.82,North,-999,-999.0,-999.0,78,0.00,,,0.00,WSDL version 420,2013-06-08 12:58:00,
2013-06-08 09:00:00,71.0,63.7,28.82,SSE,158,0.0,2.0,77,0.00,,,0.00,WSDL version 420,2013-06-08 13:00:00,
2013-06-08 09:02:00,71.1,63.7,28.82,ESE,113,0.9,2.5,77,0.00,,,0.00,WSDL version 420,2013-06-08 13:02:00,
2013-06-08 09:04:00,71.2,63.6,28.82,East,101,1.1,2.5,77,0.00,,,0.00,WSDL version 420,2013-06-08 13:04:00,
2013-06-08 09:06:00,71.3,63.7,28.82,ESE,113,1.2,2.5,77,0.00,,,0.00,WSDL version 420,2013-06-08 13:06:00,
2013-06-08 09:08:00,71.3,63.6,28.82,SE,135,0.6,2.5,76,0.00,,,0.00,WSDL version 420,2013-06-08 13:08:00,
2013-06-08 09:12:00,71.5,63.5,28.82,North,0,0.0,1.6,75,0.00,,,0.00,WSDL version 420,2013-06-08 13:12:00,
2013-06-08 09:14:00,71.6,63.4,28.82,East,90,0.0,1.6,75,0.00,,,0.00,WSDL version 420,2013-06-08 13:14:00,
2013-06-08 09:18:00,71.8,63.4,28.82,NE,34,0.0,0.0,75,0.00,,,0.00,WSDL version 420,2013-06-08 13:18:00,
2013-06-08 09:20:00,71.8,63.4,28.82,NNE,23,0.0,0.0,75,0.00,,,0.00,WSDL version 420,2013-06-08 13:20:00,
2013-06-08 09:22:00,71.8,63.5,28.82,SSE,158,0.0,0.0,75,0.00,,,0.00,WSDL version 420,2013-06-08 13:22:00,
2013-06-08 09:24:00,71.9,63.6,28.82,North,-999,-999.0,-999.0,75,0.00,,,0.00,WSDL version 420,2013-06-08 13:24:00,
2013-06-08 09:26:00,72.1,63.7,28.82,SE,135,0.0,0.0,75,0.00,,,0.00,WSDL version 420,2013-06-08 13:26:00,
2013-06-08 09:28:00,72.1,63.8,28.82,North,-999,-999.0,-999.0,75,0.00,,,0.00,WSDL version 420,2013-06-08 13:28:00,
2013-06-08 09:30:00,72.3,63.9,28.82,West,270,0.0,0.0,75,0.00,,,0.00,WSDL version 420,2013-06-08 13:30:00,
2013-06-08 09:32:00,72.4,64.0,28.82,North,-999,-999.0,-999.0,75,0.00,,,0.00,WSDL version 420,2013-06-08 13:32:00,
2013-06-08 09:36:00,72.5,63.8,28.85,North,-999,-999.0,-999.0,74,0.00,,,0.00,WSDL version 420,2013-06-08 13:36:00,
2013-06-08 09:38:00,72.6,63.8,28.85,North,-999,-999.0,-999.0,74,0.00,,,0.00,WSDL version 420,2013-06-08 13:38:00,
2013-06-08 09:40:00,72.7,64.0,28.85,North,-999,-999.0,-999.0,74,0.00,,,0.00,WSDL version 420,2013-06-08 13:40:00,
2013-06-08 09:42:00,72.9,64.1,28.85,North,-999,-999.0,-999.0,74,0.00,,,0.00,WSDL version 420,2013-06-08 13:42:00,
2013-06-08 09:44:00,73.0,64.0,28.85,North,-999,-999.0,-999.0,73,0.00,,,0.00,WSDL version 420,2013-06-08 13:44:00,
2013-06-08 09:48:00,73.1,64.0,28.85,North,-999,-999.0,-999.0,73,0.00,,,0.00,WSDL version 420,2013-06-08 13:48:00,
2013-06-08 09:52:00,73.4,63.9,28.85,NE,45,0.0,0.0,72,0.00,,,0.00,WSDL version 420,2013-06-08 13:52:00,
2013-06-08 09:58:00,73.4,63.4,28.85,North,0,0.0,0.0,71,0.00,,,0.00,WSDL version 420,2013-06-08 13:58:00,
2013-06-08 10:00:00,73.4,63.4,28.85,WSW,248,0.0,0.0,71,0.00,,,0.00,WSDL version 420,2013-06-08 14:00:00,
2013-06-08 10:06:00,73.4,63.4,28.85,North,-999,-999.0,-999.0,70,0.00,,,0.00,WSDL version 420,2013-06-08 14:06:00,
2013-06-08 10:08:00,73.4,63.2,28.85,North,-999,-999.0,-999.0,70,0.00,,,0.00,WSDL version 420,2013-06-08 14:08:00,
2013-06-08 10:10:00,73.4,63.1,28.85,North,-999,-999.0,-999.0,70,0.00,,,0.00,WSDL version 420,2013-06-08 14:10:00,
2013-06-08 10:12:00,73.4,63.1,28.85,SSE,158,0.0,0.0,70,0.00,,,0.00,WSDL version 420,2013-06-08 14:12:00,
2013-06-08 10:14:00,73.5,63.3,28.85,North,0,0.0,0.0,71,0.00,,,0.00,WSDL version 420,2013-06-08 14:14:00,
2013-06-08 10:18:00,73.5,63.2,28.85,South,180,0.0,0.0,70,0.00,,,0.00,WSDL version 420,2013-06-08 14:18:00,
2013-06-08 10:20:00,73.5,63.2,28.85,North,-999,-999.0,-999.0,70,0.00,,,0.00,WSDL version 420,2013-06-08 14:20:00,
2013-06-08 10:22:00,73.8,63.4,28.85,North,-999,-999.0,-999.0,70,0.00,,,0.00,WSDL version 420,2013-06-08 14:22:00,
2013-06-08 10:26:00,74.3,63.9,28.85,East,79,0.0,0.0,70,0.00,,,0.00,WSDL version 420,2013-06-08 14:26:00,
2013-06-08 10:28:00,74.5,64.1,28.85,North,-999,-999.0,-999.0,70,0.00,,,0.00,WSDL version 420,2013-06-08 14:28:00,
2013-06-08 10:32:00,74.9,64.5,28.85,NE,45,0.0,0.0,70,0.00,,,0.00,WSDL version 420,2013-06-08 14:32:00,
2013-06-08 10:34:00,75.1,64.5,28.85,NE,45,0.0,0.0,69,0.00,,,0.00,WSDL version 420,2013-06-08 14:34:00,
2013-06-08 10:36:00,75.1,64.4,28.85,East,90,0.0,0.0,69,0.00,,,0.00,WSDL version 420,2013-06-08 14:36:00,
2013-06-08 10:42:00,75.2,64.0,28.85,North,-999,-999.0,-999.0,67,0.00,,,0.00,WSDL version 420,2013-06-08 14:42:00,
2013-06-08 10:44:00,75.4,64.0,28.85,East,90,0.0,3.8,68,0.00,,,0.00,WSDL version 420,2013-06-08 14:44:00,
2013-06-08 10:46:00,75.6,64.0,28.85,North,0,0.0,3.8,67,0.00,,,0.00,WSDL version 420,2013-06-08 14:46:00,
2013-06-08 10:48:00,75.7,63.9,28.85,North,-999,-999.0,-999.0,66,0.00,,,0.00,WSDL version 420,2013-06-08 14:48:00,
2013-06-08 10:50:00,75.7,63.8,28.85,East,90,0.0,0.0,66,0.00,,,0.00,WSDL version 420,2013-06-08 14:50:00,
2013-06-08 10:54:00,75.9,63.7,28.85,North,-999,-999.0,-999.0,66,0.00,,,0.00,WSDL version 420,2013-06-08 14:54:00,
2013-06-08 10:58:00,76.0,63.6,28.85,North,-999,-999.0,-999.0,65,0.00,,,0.00,WSDL version 420,2013-06-08 14:58:00,
2013-06-08 11:02:00,75.8,62.9,28.85,SSW,203,0.0,0.0,64,0.00,,,0.00,WSDL version 420,2013-06-08 15:02:00,
2013-06-08 11:04:00,75.7,62.7,28.85,SSW,203,0.0,0.0,65,0.00,,,0.00,WSDL version 420,2013-06-08 15:04:00,
2013-06-08 11:06:00,75.6,62.9,28.85,NW,315,0.0,0.0,66,0.00,,,0.00,WSDL version 420,2013-06-08 15:06:00,
2013-06-08 11:08:00,75.7,63.4,28.85,NW,315,0.0,0.0,66,0.00,,,0.00,WSDL version 420,2013-06-08 15:08:00,
2013-06-08 11:10:00,75.7,63.4,28.85,SSE,165,0.0,0.0,65,0.00,,,0.00,WSDL version 420,2013-06-08 15:10:00,
2013-06-08 11:12:00,75.7,63.2,28.85,NW,315,0.0,0.0,65,0.00,,,0.00,WSDL version 420,2013-06-08 15:12:00,
2013-06-08 11:14:00,75.8,63.2,28.85,NW,315,0.0,0.0,65,0.00,,,0.00,WSDL version 420,2013-06-08 15:14:00,
2013-06-08 11:18:00,76.3,63.6,28.85,South,180,0.9,0.0,65,0.00,,,0.00,WSDL version 420,2013-06-08 15:18:00,
2013-06-08 11:20:00,76.6,63.9,28.85,SE,135,1.1,0.0,65,0.00,,,0.00,WSDL version 420,2013-06-08 15:20:00,
2013-06-08 11:22:00,76.9,64.1,28.85,SSE,158,0.9,0.0,65,0.00,,,0.00,WSDL version 420,2013-06-08 15:22:00,
2013-06-08 11:24:00,77.1,64.1,28.85,North,0,0.0,0.0,63,0.00,,,0.00,WSDL version 420,2013-06-08 15:24:00,
2013-06-08 11:30:00,76.9,63.4,28.85,North,-999,-999.0,-999.0,63,0.00,,,0.00,WSDL version 420,2013-06-08 15:30:00,
2013-06-08 11:32:00,76.9,63.3,28.85,WNW,293,0.0,0.0,62,0.00,,,0.00,WSDL version 420,2013-06-08 15:32:00,
2013-06-08 11:34:00,77.1,63.2,28.85,North,0,0.0,0.0,62,0.00,,,0.00,WSDL version 420,2013-06-08 15:34:00,
2013-06-08 11:40:00,77.5,62.7,28.88,North,0,0.0,0.0,58,0.00,,,0.00,WSDL version 420,2013-06-08 15:40:00,
2013-06-08 11:42:00,77.6,62.6,28.88,North,-999,-999.0,-999.0,60,0.00,,,0.00,WSDL version 420,2013-06-08 15:42:00,
2013-06-08 11:46:00,77.9,63.0,28.88,North,-999,-999.0,-999.0,60,0.00,,,0.00,WSDL version 420,2013-06-08 15:46:00,
2013-06-08 11:48:00,78.0,63.2,28.88,North,-999,-999.0,-999.0,60,0.00,,,0.00,WSDL version 420,2013-06-08 15:48:00,
2013-06-08 11:52:00,78.2,63.5,28.88,North,-999,-999.0,-999.0,61,0.00,,,0.00,WSDL version 420,2013-06-08 15:52:00,
2013-06-08 11:54:00,78.4,63.9,28.88,North,360,0.0,0.0,62,0.00,,,0.00,WSDL version 420,2013-06-08 15:54:00,
2013-06-08 12:00:00,79.0,64.2,28.88,North,-999,-999.0,-999.0,60,0.00,,,0.00,WSDL version 420,2013-06-08 16:00:00,
2013-06-08 12:04:00,79.2,63.2,28.88,North,-999,-999.0,-999.0,57,0.00,,,0.00,WSDL version 420,2013-06-08 16:04:00,
2013-06-08 12:06:00,79.3,63.0,28.88,North,-999,-999.0,-999.0,58,0.00,,,0.00,WSDL version 420,2013-06-08 16:06:00,
2013-06-08 12:10:00,79.6,63.2,28.88,NNE,23,0.6,0.9,58,0.00,,,0.00,WSDL version 420,2013-06-08 16:10:00,
2013-06-08 12:12:00,79.7,63.2,28.88,North,-999,-999.0,-999.0,56,0.00,,,0.00,WSDL version 420,2013-06-08 16:12:00,
2013-06-08 12:14:00,79.8,63.2,28.88,North,360,0.0,0.0,57,0.00,,,0.00,WSDL version 420,2013-06-08 16:14:00,
2013-06-08 12:18:00,79.8,63.0,28.88,North,-999,-999.0,-999.0,56,0.00,,,0.00,WSDL version 420,2013-06-08 16:18:00,
2013-06-08 12:22:00,79.4,62.0,28.88,ENE,68,0.0,0.0,55,0.00,,,0.00,WSDL version 420,2013-06-08 16:22:00,
2013-06-08 12:24:00,79.1,61.8,28.88,SW,225,0.0,1.1,57,0.00,,,0.00,WSDL version 420,2013-06-08 16:24:00,
2013-06-08 12:28:00,79.0,62.2,28.88,North,-999,-999.0,-999.0,55,0.00,,,0.00,WSDL version 420,2013-06-08 16:28:00,
2013-06-08 12:30:00,79.2,62.0,28.88,SW,225,0.0,1.1,55,0.00,,,0.00,WSDL version 420,2013-06-08 16:30:00,
2013-06-08 12:32:00,79.5,61.6,28.88,SW,225,0.0,1.1,53,0.00,,,0.00,WSDL version 420,2013-06-08 16:32:00,
2013-06-08 12:36:00,80.1,62.1,28.88,East,90,0.0,1.1,55,0.00,,,0.00,WSDL version 420,2013-06-08 16:36:00,
2013-06-08 12:38:00,80.3,62.4,28.88,NE,56,1.0,1.1,54,0.00,,,0.00,WSDL version 420,2013-06-08 16:38:00,
2013-06-08 12:40:00,80.4,62.1,28.88,North,-999,-999.0,-999.0,53,0.00,,,0.00,WSDL version 420,2013-06-08 16:40:00,
2013-06-08 12:42:00,80.4,61.3,28.88,North,-999,-999.0,-999.0,51,0.00,,,0.00,WSDL version 420,2013-06-08 16:42:00,
2013-06-08 12:46:00,80.3,60.6,28.88,North,-999,-999.0,-999.0,50,0.00,,,0.00,WSDL version 420,2013-06-08 16:46:00,
2013-06-08 12:48:00,80.4,60.6,28.88,North,-999,-999.0,-999.0,51,0.00,,,0.00,WSDL version 420,2013-06-08 16:48:00,
2013-06-08 12:52:00,80.3,60.8,28.88,North,-999,-999.0,-999.0,52,0.00,,,0.00,WSDL version 420,2013-06-08 16:52:00,
2013-06-08 12:54:00,80.0,61.1,28.88,North,-999,-999.0,-999.0,53,0.00,,,0.00,WSDL version 420,2013-06-08 16:54:00,
2013-06-08 12:58:00,80.1,61.1,28.88,North,0,0.0,0.0,52,0.00,,,0.00,WSDL version 420,2013-06-08 16:58:00,
2013-06-08 13:02:00,80.5,60.6,28.88,North,0,0.0,0.0,50,0.00,,,0.00,WSDL version 420,2013-06-08 17:02:00,
2013-06-08 13:04:00,80.6,60.1,28.88,North,-999,-999.0,-999.0,50,0.00,,,0.00,WSDL version 420,2013-06-08 17:04:00,
2013-06-08 13:06:00,80.4,59.8,28.88,North,-999,-999.0,-999.0,50,0.00,,,0.00,WSDL version 420,2013-06-08 17:06:00,
2013-06-08 13:08:00,80.0,59.4,28.88,SW,236,0.0,0.0,50,0.00,,,0.00,WSDL version 420,2013-06-08 17:08:00,
2013-06-08 13:10:00,79.5,59.2,28.88,NW,315,0.0,0.0,50,0.00,,,0.00,WSDL version 420,2013-06-08 17:10:00,
2013-06-08 13:12:00,79.1,59.0,28.88,NE,45,0.0,0.0,51,0.00,,,0.00,WSDL version 420,2013-06-08 17:12:00,
2013-06-08 13:18:00,78.4,60.0,28.88,SSW,203,0.0,0.0,53,0.00,,,0.00,WSDL version 420,2013-06-08 17:18:00,
2013-06-08 13:20:00,78.5,60.1,28.88,West,270,0.0,0.0,53,0.00,,,0.00,WSDL version 420,2013-06-08 17:20:00,
2013-06-08 13:24:00,79.2,60.8,28.88,SSE,158,0.0,0.0,54,0.00,,,0.00,WSDL version 420,2013-06-08 17:24:00,
2013-06-08 13:26:00,79.7,61.6,28.88,North,-999,-999.0,-999.0,54,0.00,,,0.00,WSDL version 420,2013-06-08 17:26:00,
2013-06-08 13:28:00,80.0,62.0,28.88,North,-999,-999.0,-999.0,54,0.00,,,0.00,WSDL version 420,2013-06-08 17:28:00,
2013-06-08 13:32:00,80.6,62.1,28.88,NE,45,0.0,1.6,54,0.00,,,0.00,WSDL version 420,2013-06-08 17:32:00,
2013-06-08 13:34:00,81.0,62.3,28.88,North,-999,-999.0,-999.0,53,0.00,,,0.00,WSDL version 420,2013-06-08 17:34:00,
2013-06-08 13:38:00,81.7,62.7,28.88,SSW,203,0.0,1.6,52,0.00,,,0.00,WSDL version 420,2013-06-08 17:38:00,
2013-06-08 13:40:00,82.0,62.7,28.88,North,-999,-999.0,-999.0,52,0.00,,,0.00,WSDL version 420,2013-06-08 17:40:00,
2013-06-08 13:44:00,82.4,62.7,28.88,SSE,158,0.0,1.6,51,0.00,,,0.00,WSDL version 420,2013-06-08 17:44:00,
2013-06-08 13:46:00,82.6,62.7,28.88,WNW,293,0.0,1.6,51,0.00,,,0.00,WSDL version 420,2013-06-08 17:46:00,
2013-06-08 13:48:00,82.8,62.8,28.88,SSW,203,0.0,1.6,51,0.00,,,0.00,WSDL version 420,2013-06-08 17:48:00,
2013-06-08 13:50:00,82.9,62.6,28.88,North,-999,-999.0,-999.0,49,0.00,,,0.00,WSDL version 420,2013-06-08 17:50:00,
2013-06-08 13:52:00,83.2,62.4,28.88,SW,236,0.0,1.6,50,0.00,,,0.00,WSDL version 420,2013-06-08 17:52:00,
2013-06-08 13:54:00,83.3,62.3,28.88,West,259,0.0,0.0,49,0.00,,,0.00,WSDL version 420,2013-06-08 17:54:00,
2013-06-08 14:00:00,83.5,60.6,28.88,North,-999,-999.0,-999.0,46,0.00,,,0.00,WSDL version 420,2013-06-08 18:00:00,
2013-06-08 14:02:00,83.5,60.5,28.88,WNW,293,0.0,1.6,46,0.00,,,0.00,WSDL version 420,2013-06-08 18:02:00,
2013-06-08 14:04:00,83.3,60.5,28.88,SW,225,0.9,1.6,47,0.00,,,0.00,WSDL version 420,2013-06-08 18:04:00,
2013-06-08 14:06:00,82.9,60.7,28.88,North,-999,-999.0,-999.0,48,0.00,,,0.00,WSDL version 420,2013-06-08 18:06:00,
2013-06-08 14:08:00,82.6,60.9,28.88,North,-999,-999.0,-999.0,47,0.00,,,0.00,WSDL version 420,2013-06-08 18:08:00,
2013-06-08 14:10:00,82.5,60.8,28.88,WSW,255,0.0,0.0,48,0.00,,,0.00,WSDL version 420,2013-06-08 18:10:00,
2013-06-08 14:12:00,82.5,60.8,28.88,SW,225,0.0,0.0,48,0.00,,,0.00,WSDL version 420,2013-06-08 18:12:00,
2013-06-08 14:16:00,83.0,60.7,28.88,SW,225,0.0,1.1,47,0.00,,,0.00,WSDL version 420,2013-06-08 18:16:00,
2013-06-08 14:20:00,83.4,61.5,28.88,South,180,1.1,1.1,48,0.00,,,0.00,WSDL version 420,2013-06-08 18:20:00,
2013-06-08 14:24:00,83.5,61.3,28.88,SSW,203,0.0,1.1,47,0.00,,,0.00,WSDL version 420,2013-06-08 18:24:00,
2013-06-08 14:28:00,83.0,61.0,28.88,SSE,158,0.0,0.0,46,0.00,,,0.00,WSDL version 420,2013-06-08 18:28:00,
2013-06-08 14:30:00,82.7,60.4,28.88,North,-999,-999.0,-999.0,47,0.00,,,0.00,WSDL version 420,2013-06-08 18:30:00,
2013-06-08 14:32:00,82.5,59.9,28.88,North,-999,-999.0,-999.0,47,0.00,,,0.00,WSDL version 420,2013-06-08 18:32:00,
2013-06-08 14:36:00,82.0,59.7,28.88,SW,214,0.0,3.1,49,0.00,,,0.00,WSDL version 420,2013-06-08 18:36:00,
2013-06-08 14:40:00,82.4,61.2,28.88,North,-999,-999.0,-999.0,47,0.00,,,0.00,WSDL version 420,2013-06-08 18:40:00,
2013-06-08 14:42:00,82.7,60.9,28.88,North,-999,-999.0,-999.0,47,0.00,,,0.00,WSDL version 420,2013-06-08 18:42:00,
2013-06-08 14:46:00,82.7,60.9,28.88,SSW,210,0.0,1.3,48,0.00,,,0.00,WSDL version 420,2013-06-08 18:46:00,
2013-06-08 14:48:00,82.7,60.8,28.88,NE,45,0.0,1.3,48,0.00,,,0.00,WSDL version 420,2013-06-08 18:48:00,
2013-06-08 14:50:00,82.8,60.9,28.88,SSW,203,0.0,1.3,48,0.00,,,0.00,WSDL version 420,2013-06-08 18:50:00,
2013-06-08 14:52:00,83.0,61.0,28.88,South,180,0.9,1.3,47,0.00,,,0.00,WSDL version 420,2013-06-08 18:52:00,
2013-06-08 14:56:00,83.4,60.9,28.88,SSW,203,0.0,0.9,47,0.00,,,0.00,WSDL version 420,2013-06-08 18:56:00,
2013-06-08 14:58:00,83.5,61.1,28.88,SSW,203,0.0,0.9,48,0.00,,,0.00,WSDL version 420,2013-06-08 18:58:00,
2013-06-08 15:04:00,83.1,60.7,28.88,North,-999,-999.0,-999.0,47,0.00,,,0.00,WSDL version 420,2013-06-08 19:04:00,
2013-06-08 15:06:00,82.8,60.5,28.88,SW,214,0.0,0.0,47,0.00,,,0.00,WSDL version 420,2013-06-08 19:06:00,
2013-06-08 15:08:00,82.4,60.4,28.88,North,-999,-999.0,-999.0,48,0.00,,,0.00,WSDL version 420,2013-06-08 19:08:00,
2013-06-08 15:12:00,82.1,60.7,28.88,North,-999,-999.0,-999.0,49,0.00,,,0.00,WSDL version 420,2013-06-08 19:12:00,
2013-06-08 15:14:00,81.9,61.1,28.88,North,-999,-999.0,-999.0,51,0.00,,,0.00,WSDL version 420,2013-06-08 19:14:00,
2013-06-08 15:20:00,81.3,61.4,28.88,North,0,0.0,1.6,51,0.00,,,0.00,WSDL version 420,2013-06-08 19:20:00,
2013-06-08 15:22:00,81.4,61.3,28.88,South,180,0.0,1.6,50,0.00,,,0.00,WSDL version 420,2013-06-08 19:22:00,
2013-06-08 15:24:00,81.5,61.3,28.88,North,-999,-999.0,-999.0,50,0.00,,,0.00,WSDL version 420,2013-06-08 19:24:00,
2013-06-08 15:28:00,81.8,61.7,28.88,SSW,203,0.0,0.9,51,0.00,,,0.00,WSDL version 420,2013-06-08 19:28:00,
2013-06-08 15:30:00,81.9,62.0,28.88,North,0,0.0,0.9,51,0.00,,,0.00,WSDL version 420,2013-06-08 19:30:00,
2013-06-08 15:36:00,81.8,61.6,28.88,South,180,0.0,0.9,49,0.00,,,0.00,WSDL version 420,2013-06-08 19:36:00,
2013-06-08 15:38:00,81.6,60.9,28.88,South,180,0.0,0.0,49,0.00,,,0.00,WSDL version 420,2013-06-08 19:38:00,
2013-06-08 15:44:00,81.3,61.5,28.88,North,-999,-999.0,-999.0,51,0.00,,,0.00,WSDL version 420,2013-06-08 19:44:00,
2013-06-08 15:46:00,81.3,61.4,28.88,South,180,0.0,0.0,51,0.00,,,0.00,WSDL version 420,2013-06-08 19:46:00,
2013-06-08 15:48:00,81.2,61.2,28.88,SSW,203,0.9,0.0,50,0.00,,,0.00,WSDL version 420,2013-06-08 19:48:00,
2013-06-08 15:50:00,81.0,61.0,28.88,North,-999,-999.0,-999.0,51,0.00,,,0.00,WSDL version 420,2013-06-08 19:50:00,
2013-06-08 15:52:00,80.9,61.2,28.88,North,-999,-999.0,-999.0,52,0.00,,,0.00,WSDL version 420,2013-06-08 19:52:00,
2013-06-08 15:54:00,80.8,61.2,28.88,North,-999,-999.0,-999.0,50,0.00,,,0.00,WSDL version 420,2013-06-08 19:54:00,
2013-06-08 15:56:00,80.6,60.8,28.88,North,-999,-999.0,-999.0,50,0.00,,,0.00,WSDL version 420,2013-06-08 19:56:00,
2013-06-08 15:58:00,80.5,60.1,28.88,North,-999,-999.0,-999.0,50,0.00,,,0.00,WSDL version 420,2013-06-08 19:58:00,
2013-06-08 16:00:00,80.3,60.0,28.88,North,-999,-999.0,-999.0,50,0.00,,,0.00,WSDL version 420,2013-06-08 20:00:00,
2013-06-08 16:04:00,80.2,60.6,28.88,North,-999,-999.0,-999.0,53,0.00,,,0.00,WSDL version 420,2013-06-08 20:04:00,
2013-06-08 16:06:00,80.1,61.0,28.88,North,-999,-999.0,-999.0,52,0.00,,,0.00,WSDL version 420,2013-06-08 20:06:00,
2013-06-08 16:10:00,80.0,61.3,28.88,North,-999,-999.0,-999.0,53,0.00,,,0.00,WSDL version 420,2013-06-08 20:10:00,
2013-06-08 16:12:00,79.9,61.3,28.88,North,-999,-999.0,-999.0,53,0.00,,,0.00,WSDL version 420,2013-06-08 20:12:00,
2013-06-08 16:16:00,79.7,60.8,28.88,North,-999,-999.0,-999.0,53,0.00,,,0.00,WSDL version 420,2013-06-08 20:16:00,
2013-06-08 16:18:00,79.7,60.8,28.88,North,-999,-999.0,-999.0,53,0.00,,,0.00,WSDL version 420,2013-06-08 20:18:00,
2013-06-08 16:20:00,79.7,60.9,28.88,North,-999,-999.0,-999.0,53,0.00,,,0.00,WSDL version 420,2013-06-08 20:20:00,
2013-06-08 16:24:00,79.7,61.3,28.85,East,90,0.0,0.0,54,0.00,,,0.00,WSDL version 420,2013-06-08 20:24:00,
2013-06-08 16:28:00,79.7,61.5,28.85,North,-999,-999.0,-999.0,55,0.00,,,0.00,WSDL version 420,2013-06-08 20:28:00,
2013-06-08 16:32:00,79.7,61.7,28.85,South,180,0.0,0.0,54,0.00,,,0.00,WSDL version 420,2013-06-08 20:32:00,
2013-06-08 16:34:00,79.7,61.5,28.85,North,-999,-999.0,-999.0,53,0.00,,,0.00,WSDL version 420,2013-06-08 20:34:00,
2013-06-08 16:36:00,79.7,61.2,28.85,North,-999,-999.0,-999.0,53,0.00,,,0.00,WSDL version 420,2013-06-08 20:36:00,
2013-06-08 16:38:00,79.8,61.1,28.85,North,-999,-999.0,-999.0,53,0.00,,,0.00,WSDL version 420,2013-06-08 20:38:00,
2013-06-08 16:42:00,79.9,61.1,28.85,North,-999,-999.0,-999.0,53,0.00,,,0.00,WSDL version 420,2013-06-08 20:42:00,
2013-06-08 16:44:00,79.9,61.1,28.85,North,-999,-999.0,-999.0,53,0.00,,,0.00,WSDL version 420,2013-06-08 20:44:00,
2013-06-08 16:48:00,79.7,61.0,28.85,North,-999,-999.0,-999.0,54,0.00,,,0.00,WSDL version 420,2013-06-08 20:48:00,
2013-06-08 16:50:00,79.6,61.2,28.88,North,-999,-999.0,-999.0,54,0.00,,,0.00,WSDL version 420,2013-06-08 20:50:00,
2013-06-08 16:54:00,79.4,61.5,28.88,North,-999,-999.0,-999.0,54,0.00,,,0.00,WSDL version 420,2013-06-08 20:54:00,
2013-06-08 16:56:00,79.3,61.6,28.88,North,-999,-999.0,-999.0,55,0.00,,,0.00,WSDL version 420,2013-06-08 20:56:00,
2013-06-08 17:00:00,79.2,61.6,28.88,South,180,0.0,0.0,55,0.00,,,0.00,WSDL version 420,2013-06-08 21:00:00,
2013-06-08 17:02:00,79.2,61.6,28.88,South,180,0.0,0.0,55,0.00,,,0.00,WSDL version 420,2013-06-08 21:02:00,
2013-06-08 17:06:00,79.3,61.8,28.88,North,-999,-999.0,-999.0,55,0.00,,,0.00,WSDL version 420,2013-06-08 21:06:00,
2013-06-08 17:08:00,79.3,62.0,28.88,North,-999,-999.0,-999.0,56,0.00,,,0.00,WSDL version 420,2013-06-08 21:08:00,
2013-06-08 17:14:00,79.4,61.6,28.88,North,-999,-999.0,-999.0,54,0.00,,,0.00,WSDL version 420,2013-06-08 21:14:00,
2013-06-08 17:16:00,79.5,61.6,28.88,South,180,0.0,0.0,55,0.00,,,0.00,WSDL version 420,2013-06-08 21:16:00,
2013-06-08 17:18:00,79.5,61.8,28.88,North,-999,-999.0,-999.0,55,0.00,,,0.00,WSDL version 420,2013-06-08 21:18:00,
2013-06-08 17:20:00,79.5,62.0,28.88,North,-999,-999.0,-999.0,55,0.00,,,0.00,WSDL version 420,2013-06-08 21:20:00,
2013-06-08 17:22:00,79.5,61.7,28.88,North,-999,-999.0,-999.0,54,0.00,,,0.00,WSDL version 420,2013-06-08 21:22:00,
2013-06-08 17:26:00,79.4,61.2,28.88,South,180,0.0,0.0,54,0.00,,,0.00,WSDL version 420,2013-06-08 21:26:00,
2013-06-08 17:28:00,79.3,61.2,28.88,SSW,203,0.0,0.9,54,0.00,,,0.00,WSDL version 420,2013-06-08 21:28:00,
2013-06-08 17:30:00,79.2,61.2,28.88,North,-999,-999.0,-999.0,54,0.00,,,0.00,WSDL version 420,2013-06-08 21:30:00,
2013-06-08 17:34:00,79.1,61.0,28.88,North,-999,-999.0,-999.0,54,0.00,,,0.00,WSDL version 420,2013-06-08 21:34:00,
2013-06-08 17:36:00,79.0,60.7,28.88,South,180,1.1,1.1,53,0.00,,,0.00,WSDL version 420,2013-06-08 21:36:00,
2013-06-08 17:38:00,79.0,60.4,28.88,South,180,0.0,0.0,52,0.00,,,0.00,WSDL version 420,2013-06-08 21:38:00,
2013-06-08 17:42:00,79.0,59.9,28.88,South,180,0.0,0.0,52,0.00,,,0.00,WSDL version 420,2013-06-08 21:42:00,
2013-06-08 17:44:00,79.0,60.1,28.88,North,-999,-999.0,-999.0,53,0.00,,,0.00,WSDL version 420,2013-06-08 21:44:00,
2013-06-08 17:46:00,79.1,60.6,28.88,ESE,113,0.9,0.0,54,0.00,,,0.00,WSDL version 420,2013-06-08 21:46:00,
2013-06-08 17:52:00,79.2,61.3,28.88,North,-999,-999.0,-999.0,55,0.00,,,0.00,WSDL version 420,2013-06-08 21:52:00,
2013-06-08 17:54:00,79.2,61.7,28.88,North,-999,-999.0,-999.0,56,0.00,,,0.00,WSDL version 420,2013-06-08 21:54:00,
2013-06-08 18:00:00,78.9,61.7,28.88,North,-999,-999.0,-999.0,56,0.00,,,0.00,WSDL version 420,2013-06-08 22:00:00,
2013-06-08 18:02:00,78.7,61.9,28.88,North,-999,-999.0,-999.0,58,0.00,,,0.00,WSDL version 420,2013-06-08 22:02:00,
2013-06-08 18:06:00,78.5,62.0,28.88,SSE,158,0.0,1.6,56,0.00,,,0.00,WSDL version 420,2013-06-08 22:06:00,
2013-06-08 18:08:00,78.4,61.6,28.88,North,0,0.0,1.6,56,0.00,,,0.00,WSDL version 420,2013-06-08 22:08:00,
2013-06-08 18:10:00,78.4,61.3,28.88,North,-999,-999.0,-999.0,56,0.00,,,0.00,WSDL version 420,2013-06-08 22:10:00,
2013-06-08 18:12:00,78.3,61.2,28.88,South,180,0.0,1.6,56,0.00,,,0.00,WSDL version 420,2013-06-08 22:12:00,
2013-06-08 18:14:00,78.3,61.2,28.88,South,180,0.0,1.6,56,0.00,,,0.00,WSDL version 420,2013-06-08 22:14:00,
2013-06-08 18:16:00,78.3,61.0,28.88,South,180,0.6,2.0,55,0.00,,,0.00,WSDL version 420,2013-06-08 22:16:00,
2013-06-08 18:20:00,78.3,60.9,28.88,South,180,0.0,2.0,55,0.00,,,0.00,WSDL version 420,2013-06-08 22:20:00,
2013-06-08 18:22:00,78.3,61.0,28.88,South,180,0.0,2.0,55,0.00,,,0.00,WSDL version 420,2013-06-08 22:22:00,
2013-06-08 18:26:00,78.3,61.1,28.88,SSE,158,0.6,2.2,56,0.00,,,0.00,WSDL version 420,2013-06-08 22:26:00,
2013-06-08 18:28:00,78.2,61.2,28.88,SSE,158,0.0,2.2,56,0.00,,,0.00,WSDL version 420,2013-06-08 22:28:00,
2013-06-08 18:30:00,78.1,61.2,28.88,North,-999,-999.0,-999.0,56,0.00,,,0.00,WSDL version 420,2013-06-08 22:30:00,
2013-06-08 18:34:00,78.1,61.0,28.88,South,180,0.0,0.0,56,0.00,,,0.00,WSDL version 420,2013-06-08 22:34:00,
2013-06-08 18:36:00,78.1,60.9,28.88,South,180,0.0,0.0,55,0.00,,,0.00,WSDL version 420,2013-06-08 22:36:00,
2013-06-08 18:38:00,78.1,60.7,28.88,South,180,0.0,0.0,55,0.00,,,0.00,WSDL version 420,2013-06-08 22:38:00,
2013-06-08 18:40:00,78.1,60.9,28.88,South,180,0.0,0.0,56,0.00,,,0.00,WSDL version 420,2013-06-08 22:40:00,
2013-06-08 18:42:00,78.1,61.2,28.88,South,180,0.0,0.0,57,0.00,,,0.00,WSDL version 420,2013-06-08 22:42:00,
2013-06-08 18:46:00,77.9,61.2,28.88,North,-999,-999.0,-999.0,56,0.00,,,0.00,WSDL version 420,2013-06-08 22:46:00,
2013-06-08 18:48:00,77.8,61.0,28.88,North,-999,-999.0,-999.0,56,0.00,,,0.00,WSDL version 420,2013-06-08 22:48:00,
2013-06-08 18:52:00,77.7,60.8,28.88,SSE,158,0.0,2.0,56,0.00,,,0.00,WSDL version 420,2013-06-08 22:52:00,
2013-06-08 18:54:00,77.7,60.7,28.88,WNW,293,0.0,0.0,56,0.00,,,0.00,WSDL version 420,2013-06-08 22:54:00,
2013-06-08 18:56:00,77.6,60.8,28.88,WNW,293,0.0,0.0,57,0.00,,,0.00,WSDL version 420,2013-06-08 22:56:00,
2013-06-08 18:58:00,77.5,61.0,28.88,WNW,293,0.0,0.0,57,0.00,,,0.00,WSDL version 420,2013-06-08 22:58:00,
2013-06-08 19:00:00,77.5,61.3,28.88,North,0,0.0,0.0,58,0.00,,,0.00,WSDL version 420,2013-06-08 23:00:00,
2013-06-08 19:04:00,77.5,61.5,28.88,North,-999,-999.0,-999.0,57,0.00,,,0.00,WSDL version 420,2013-06-08 23:04:00,
2013-06-08 19:06:00,77.4,61.4,28.88,SW,225,0.0,0.0,58,0.00,,,0.00,WSDL version 420,2013-06-08 23:06:00,
2013-06-08 19:10:00,77.3,61.4,28.88,North,-999,-999.0,-999.0,58,0.00,,,0.00,WSDL version 420,2013-06-08 23:10:00,
2013-06-08 19:12:00,77.2,61.3,28.88,North,-999,-999.0,-999.0,58,0.00,,,0.00,WSDL version 420,2013-06-08 23:12:00,
2013-06-08 19:14:00,77.2,61.4,28.88,SW,225,0.0,0.0,59,0.00,,,0.00,WSDL version 420,2013-06-08 23:14:00,
2013-06-08 19:16:00,77.1,61.5,28.88,North,-999,-999.0,-999.0,59,0.00,,,0.00,WSDL version 420,2013-06-08 23:16:00,
2013-06-08 19:18:00,77.0,61.5,28.88,SW,225,0.0,0.0,59,0.00,,,0.00,WSDL version 420,2013-06-08 23:18:00,
2013-06-08 19:20:00,77.0,61.5,28.88,North,-999,-999.0,-999.0,59,0.00,,,0.00,WSDL version 420,2013-06-08 23:20:00,
2013-06-08 19:22:00,77.0,61.6,28.88,SW,225,0.0,0.0,59,0.00,,,0.00,WSDL version 420,2013-06-08 23:22:00,
2013-06-08 19:24:00,76.9,61.5,28.88,North,-999,-999.0,-999.0,59,0.00,,,0.00,WSDL version 420,2013-06-08 23:24:00,
2013-06-08 19:26:00,76.8,61.5,28.88,North,-999,-999.0,-999.0,60,0.00,,,0.00,WSDL version 420,2013-06-08 23:26:00,
2013-06-08 19:28:00,76.8,61.6,28.88,North,-999,-999.0,-999.0,60,0.00,,,0.00,WSDL version 420,2013-06-08 23:28:00,
2013-06-08 19:30:00,76.7,61.8,28.88,North,-999,-999.0,-999.0,60,0.00,,,0.00,WSDL version 420,2013-06-08 23:30:00,
2013-06-08 19:32:00,76.6,61.7,28.88,North,-999,-999.0,-999.0,60,0.00,,,0.00,WSDL version 420,2013-06-08 23:32:00,
2013-06-08 19:34:00,76.6,61.9,28.88,SW,225,0.0,0.0,61,0.00,,,0.00,WSDL version 420,2013-06-08 23:34:00,
2013-06-08 19:36:00,76.6,62.1,28.91,SW,225,0.0,0.0,62,0.00,,,0.00,WSDL version 420,2013-06-08 23:36:00,
2013-06-08 19:42:00,76.4,62.5,28.91,North,-999,-999.0,-999.0,62,0.00,,,0.00,WSDL version 420,2013-06-08 23:42:00,
2013-06-08 19:44:00,76.4,62.5,28.91,North,-999,-999.0,-999.0,63,0.00,,,0.00,WSDL version 420,2013-06-08 23:44:00,
2013-06-08 19:50:00,76.2,62.7,28.91,North,-999,-999.0,-999.0,63,0.00,,,0.00,WSDL version 420,2013-06-08 23:50:00,
2013-06-08 19:52:00,76.1,62.6,28.91,North,-999,-999.0,-999.0,63,0.00,,,0.00,WSDL version 420,2013-06-08 23:52:00,
2013-06-08 19:54:00,76.1,62.8,28.91,North,-999,-999.0,-999.0,64,0.00,,,0.00,WSDL version 420,2013-06-08 23:54:00,
2013-06-08 20:00:00,76.1,63.0,28.91,SW,225,0.0,0.0,64,0.00,,,0.00,WSDL version 420,2013-06-09 00:00:00,
2013-06-08 20:02:00,76.0,63.0,28.91,North,0,0.0,0.0,65,0.00,,,0.00,WSDL version 420,2013-06-09 00:02:00,
2013-06-08 20:04:00,75.9,63.0,28.91,SW,225,0.0,0.0,64,0.00,,,0.00,WSDL version 420,2013-06-09 00:04:00,
2013-06-08 20:08:00,75.8,62.7,28.91,North,-999,-999.0,-999.0,64,0.00,,,0.00,WSDL version 420,2013-06-09 00:08:00,
2013-06-08 20:10:00,75.7,62.9,28.91,SW,225,0.0,0.0,65,0.00,,,0.00,WSDL version 420,2013-06-09 00:10:00,
2013-06-08 20:12:00,75.6,63.0,28.91,SW,225,0.0,0.0,65,0.00,,,0.00,WSDL version 420,2013-06-09 00:12:00,
2013-06-08 20:16:00,75.5,62.9,28.91,North,0,0.0,0.0,65,0.00,,,0.00,WSDL version 420,2013-06-09 00:16:00,
2013-06-08 20:22:00,75.2,62.6,28.91,SW,225,0.0,0.0,65,0.00,,,0.00,WSDL version 420,2013-06-09 00:22:00,
2013-06-08 20:24:00,75.1,62.7,28.91,SW,225,0.0,0.0,66,0.00,,,0.00,WSDL version 420,2013-06-09 00:24:00,
2013-06-08 20:26:00,75.1,62.9,28.91,SW,225,0.0,0.0,66,0.00,,,0.00,WSDL version 420,2013-06-09 00:26:00,
2013-06-08 20:28:00,75.0,62.9,28.91,SW,225,0.0,0.0,66,0.00,,,0.00,WSDL version 420,2013-06-09 00:28:00,
2013-06-08 20:32:00,74.8,62.7,28.91,SW,225,0.0,0.0,66,0.00,,,0.00,WSDL version 420,2013-06-09 00:32:00,
2013-06-08 20:34:00,74.7,62.6,28.91,SW,225,0.0,0.0,66,0.00,,,0.00,WSDL version 420,2013-06-09 00:34:00,
2013-06-08 20:40:00,74.5,62.4,28.91,North,-999,-999.0,-999.0,66,0.00,,,0.00,WSDL version 420,2013-06-09 00:40:00,
2013-06-08 20:42:00,74.4,62.3,28.91,SW,225,0.0,0.0,66,0.00,,,0.00,WSDL version 420,2013-06-09 00:42:00,
2013-06-08 20:44:00,74.4,62.3,28.91,SW,225,0.0,0.0,66,0.00,,,0.00,WSDL version 420,2013-06-09 00:44:00,
2013-06-08 20:46:00,74.3,62.3,28.91,SW,225,0.0,0.0,67,0.00,,,0.00,WSDL version 420,2013-06-09 00:46:00,
2013-06-08 20:48:00,74.2,62.4,28.91,SW,225,0.0,0.0,67,0.00,,,0.00,WSDL version 420,2013-06-09 00:48:00,
2013-06-08 20:50:00,74.2,62.5,28.94,North,0,0.0,0.0,67,0.00,,,0.00,WSDL version 420,2013-06-09 00:50:00,
2013-06-08 20:52:00,74.1,62.5,28.94,SW,225,0.0,0.0,67,0.00,,,0.00,WSDL version 420,2013-06-09 00:52:00,
2013-06-08 20:54:00,74.1,62.5,28.94,SW,225,0.0,0.0,67,0.00,,,0.00,WSDL version 420,2013-06-09 00:54:00,
2013-06-08 20:56:00,74.1,62.6,28.94,North,-999,-999.0,-999.0,68,0.00,,,0.00,WSDL version 420,2013-06-09 00:56:00,
2013-06-08 21:02:00,74.0,62.8,28.94,North,-999,-999.0,-999.0,68,0.00,,,0.00,WSDL version 420,2013-06-09 01:02:00,
2013-06-08 21:04:00,73.9,62.7,28.94,SSW,203,0.0,0.0,68,0.00,,,0.00,WSDL version 420,2013-06-09 01:04:00,
2013-06-08 21:06:00,73.9,62.7,28.94,North,-999,-999.0,-999.0,68,0.00,,,0.00,WSDL version 420,2013-06-09 01:06:00,
2013-06-08 21:08:00,73.9,62.7,28.94,SSW,203,0.0,0.0,68,0.00,,,0.00,WSDL version 420,2013-06-09 01:08:00,
2013-06-08 21:12:00,73.9,62.9,28.94,South,180,0.0,0.0,68,0.00,,,0.00,WSDL version 420,2013-06-09 01:12:00,
2013-06-08 21:16:00,73.9,62.7,28.94,North,0,0.0,0.0,68,0.00,,,0.00,WSDL version 420,2013-06-09 01:16:00,
2013-06-08 21:18:00,73.8,62.6,28.94,South,180,0.0,0.0,68,0.00,,,0.00,WSDL version 420,2013-06-09 01:18:00,
2013-06-08 21:20:00,73.8,62.6,28.94,South,180,0.0,0.0,68,0.00,,,0.00,WSDL version 420,2013-06-09 01:20:00,
2013-06-08 21:24:00,73.7,62.5,28.94,South,180,0.0,0.0,68,0.00,,,0.00,WSDL version 420,2013-06-09 01:24:00,
2013-06-08 21:28:00,73.6,62.7,28.94,South,180,0.0,0.0,69,0.00,,,0.00,WSDL version 420,2013-06-09 01:28:00,
2013-06-08 21:30:00,73.6,62.8,28.94,South,180,0.0,0.0,69,0.00,,,0.00,WSDL version 420,2013-06-09 01:30:00,
2013-06-08 21:32:00,73.6,62.8,28.94,South,180,0.0,0.0,69,0.00,,,0.00,WSDL version 420,2013-06-09 01:32:00,
2013-06-08 21:34:00,73.6,62.8,28.94,South,180,0.0,0.0,69,0.00,,,0.00,WSDL version 420,2013-06-09 01:34:00,
2013-06-08 21:38:00,73.6,62.8,28.94,South,180,0.0,0.0,69,0.00,,,0.00,WSDL version 420,2013-06-09 01:38:00,
2013-06-08 21:40:00,73.5,62.7,28.94,South,180,0.0,0.0,69,0.00,,,0.00,WSDL version 420,2013-06-09 01:40:00,
2013-06-08 21:42:00,73.4,62.6,28.94,South,180,0.0,0.0,69,0.00,,,0.00,WSDL version 420,2013-06-09 01:42:00,
2013-06-08 21:46:00,73.3,62.7,28.94,South,180,0.0,0.0,70,0.00,,,0.00,WSDL version 420,2013-06-09 01:46:00,
2013-06-08 21:50:00,73.2,62.9,28.94,South,180,0.0,0.0,70,0.00,,,0.00,WSDL version 420,2013-06-09 01:50:00,
2013-06-08 21:52:00,73.2,62.9,28.94,South,180,0.0,0.0,70,0.00,,,0.00,WSDL version 420,2013-06-09 01:52:00,
2013-06-08 21:54:00,73.2,62.9,28.94,South,180,0.0,0.0,70,0.00,,,0.00,WSDL version 420,2013-06-09 01:54:00,
2013-06-08 21:56:00,73.2,62.9,28.94,South,180,0.0,0.0,70,0.00,,,0.00,WSDL version 420,2013-06-09 01:56:00,
2013-06-08 21:58:00,73.2,62.8,28.94,South,180,0.0,0.0,70,0.00,,,0.00,WSDL version 420,2013-06-09 01:58:00,
2013-06-08 22:00:00,73.1,62.8,28.94,South,180,0.0,0.0,70,0.00,,,0.00,WSDL version 420,2013-06-09 02:00:00,
2013-06-08 22:02:00,73.0,62.7,28.94,South,180,0.0,0.0,70,0.00,,,0.00,WSDL version 420,2013-06-09 02:02:00,
2013-06-08 22:04:00,73.0,62.6,28.94,South,180,0.0,0.0,70,0.00,,,0.00,WSDL version 420,2013-06-09 02:04:00,
2013-06-08 22:08:00,72.9,62.5,28.97,North,-999,-999.0,-999.0,70,0.00,,,0.00,WSDL version 420,2013-06-09 02:08:00,
2013-06-08 22:12:00,72.9,62.8,28.97,North,0,0.0,0.0,71,0.00,,,0.00,WSDL version 420,2013-06-09 02:12:00,
2013-06-08 22:14:00,72.9,62.9,28.97,South,180,0.0,0.0,71,0.00,,,0.00,WSDL version 420,2013-06-09 02:14:00,
2013-06-08 22:16:00,72.9,62.9,28.97,South,180,0.0,0.0,71,0.00,,,0.00,WSDL version 420,2013-06-09 02:16:00,
2013-06-08 22:22:00,72.7,62.8,28.97,North,-999,-999.0,-999.0,71,0.00,,,0.00,WSDL version 420,2013-06-09 02:22:00,
2013-06-08 22:28:00,72.7,62.7,28.97,North,-999,-999.0,-999.0,71,0.00,,,0.00,WSDL version 420,2013-06-09 02:28:00,
2013-06-08 22:30:00,72.7,62.7,28.97,SSW,203,0.0,0.0,71,0.00,,,0.00,WSDL version 420,2013-06-09 02:30:00,
2013-06-08 22:32:00,72.7,62.7,28.97,North,0,0.0,0.0,71,0.00,,,0.00,WSDL version 420,2013-06-09 02:32:00,
2013-06-08 22:36:00,72.6,62.7,28.97,SSW,203,0.0,0.0,71,0.00,,,0.00,WSDL version 420,2013-06-09 02:36:00,
2013-06-08 22:38:00,72.5,62.6,28.97,SSW,203,0.0,0.0,71,0.00,,,0.00,WSDL version 420,2013-06-09 02:38:00,
2013-06-08 22:40:00,72.5,62.6,28.97,North,-999,-999.0,-999.0,71,0.00,,,0.00,WSDL version 420,2013-06-09 02:40:00,
2013-06-08 22:42:00,72.5,62.5,28.97,SSW,203,0.0,0.0,71,0.00,,,0.00,WSDL version 420,2013-06-09 02:42:00,
2013-06-08 22:44:00,72.4,62.5,28.97,SSE,158,0.0,0.0,71,0.00,,,0.00,WSDL version 420,2013-06-09 02:44:00,
2013-06-08 22:48:00,72.3,62.7,28.97,East,90,0.0,0.0,72,0.00,,,0.00,WSDL version 420,2013-06-09 02:48:00,
2013-06-08 22:50:00,72.3,62.8,28.97,North,0,0.0,0.0,72,0.00,,,0.00,WSDL version 420,2013-06-09 02:50:00,
2013-06-08 22:52:00,72.3,62.8,28.97,East,90,0.0,0.0,72,0.00,,,0.00,WSDL version 420,2013-06-09 02:52:00,
2013-06-08 22:56:00,72.1,62.6,28.97,North,-999,-999.0,-999.0,72,0.00,,,0.00,WSDL version 420,2013-06-09 02:56:00,
2013-06-08 22:58:00,72.1,62.6,28.97,North,-999,-999.0,-999.0,72,0.00,,,0.00,WSDL version 420,2013-06-09 02:58:00,
2013-06-08 23:02:00,72.1,62.6,28.97,North,-999,-999.0,-999.0,72,0.00,,,0.00,WSDL version 420,2013-06-09 03:02:00,
2013-06-08 23:04:00,72.1,62.6,28.97,SW,225,0.0,0.0,72,0.00,,,0.00,WSDL version 420,2013-06-09 03:04:00,
2013-06-08 23:10:00,72.0,62.4,28.97,SW,225,0.0,0.0,72,0.00,,,0.00,WSDL version 420,2013-06-09 03:10:00,
2013-06-08 23:16:00,71.9,62.7,28.97,NNW,338,0.0,0.0,72,0.00,,,0.00,WSDL version 420,2013-06-09 03:16:00,
2013-06-08 23:18:00,71.9,62.5,28.97,North,360,0.0,0.0,73,0.00,,,0.00,WSDL version 420,2013-06-09 03:18:00,
2013-06-08 23:20:00,71.8,62.5,28.97,SSW,203,0.0,0.0,73,0.00,,,0.00,WSDL version 420,2013-06-09 03:20:00,
2013-06-08 23:22:00,71.8,62.7,28.97,North,0,0.0,0.0,73,0.00,,,0.00,WSDL version 420,2013-06-09 03:22:00,
2013-06-08 23:24:00,71.8,62.7,28.97,North,-999,-999.0,-999.0,73,0.00,,,0.00,WSDL version 420,2013-06-09 03:24:00,
2013-06-08 23:26:00,71.8,62.7,28.97,South,180,0.0,0.0,73,0.00,,,0.00,WSDL version 420,2013-06-09 03:26:00,
2013-06-08 23:30:00,71.8,62.7,28.97,South,180,0.0,0.0,73,0.00,,,0.00,WSDL version 420,2013-06-09 03:30:00,
2013-06-08 23:34:00,71.8,62.7,28.97,North,0,0.0,0.0,73,0.00,,,0.00,WSDL version 420,2013-06-09 03:34:00,
2013-06-08 23:36:00,71.8,62.6,28.97,North,-999,-999.0,-999.0,73,0.00,,,0.00,WSDL version 420,2013-06-09 03:36:00,
2013-06-08 23:38:00,71.8,62.6,28.97,South,180,0.0,0.0,73,0.00,,,0.00,WSDL version 420,2013-06-09 03:38:00,
2013-06-08 23:40:00,71.7,62.6,28.97,South,180,0.0,0.0,73,0.00,,,0.00,WSDL version 420,2013-06-09 03:40:00,
2013-06-08 23:42:00,71.7,62.6,28.97,North,-999,-999.0,-999.0,73,0.00,,,0.00,WSDL version 420,2013-06-09 03:42:00,
2013-06-08 23:44:00,71.6,62.5,28.97,East,90,0.0,0.0,73,0.00,,,0.00,WSDL version 420,2013-06-09 03:44:00,
2013-06-08 23:48:00,71.5,62.6,28.97,East,90,0.0,0.0,74,0.00,,,0.00,WSDL version 420,2013-06-09 03:48:00,
2013-06-08 23:50:00,71.4,62.7,28.97,East,90,0.0,0.0,74,0.00,,,0.00,WSDL version 420,2013-06-09 03:50:00,
2013-06-08 23:54:00,71.4,62.7,28.97,East,90,0.0,0.0,74,0.00,,,0.00,WSDL version 420,2013-06-09 03:54:00,
2013-06-08 23:58:00,71.3,62.6,28.97,North,-999,-999.0,-999.0,74,0.00,,,0.00,WSDL version 420,2013-06-09 03:58:00,